Pongnae — 3FDZ8 — position and weather

sailwx.info

Track history (hours):
 
Tides and Currents Weather Stations Pressure Air Temp Water Temp Dewpoint Dewpoint Depression Visibility Wind Speed Wind Dir Waves Ship Positions

Pongnae

Operator: V Ships Leisure SAM

Last reported at 2016-Jul-29 01:07 UTC. Time now 2016-Jul-29 23:33 UTC.
Position N 22°18' E 114°13'.

Length 171 m; draft 6.6 m.

Type: Passenger vessel. MMSI: 353669000.

Date/timePositionNaut miles runAvg speedWind from/ knotsBaromVisibWave heightAir tempDewpointWater temp
2016-Jul-29 01:07N 22°18' E 114°13'5 2.6
2016-Jul-28 23:19N 22°14' E 114°17'7 8.4
2016-Jul-28 22:30N 22°09' E 114°22'3 0.3
2016-Jul-28 13:32N 22°12' E 114°20'9 7.9
2016-Jul-28 12:24N 22°18' E 114°13'0 0.1
2016-Jul-28 11:30N 22°18' E 114°13'0 0.0
2016-Jul-28 10:30N 22°18' E 114°13'0 0.0
2016-Jul-28 09:33N 22°18' E 114°13'0 0.0
2016-Jul-28 08:15N 22°18' E 114°13'0 0.1
2016-Jul-28 07:24N 22°18' E 114°13'0 0.0
2016-Jul-28 06:33N 22°18' E 114°13'0 0.1
2016-Jul-28 05:30N 22°18' E 114°13'0 0.0
2016-Jul-28 04:27N 22°18' E 114°13'0 0.0
2016-Jul-28 03:30N 22°18' E 114°13'0 0.1
2016-Jul-28 02:33N 22°18' E 114°13'0 0.0
2016-Jul-28 01:30N 22°18' E 114°13'0 0.0
2016-Jul-28 00:33N 22°18' E 114°13'2 2.3
2016-Jul-27 23:32N 22°16' E 114°15'10 9.4
2016-Jul-27 22:31N 22°10' E 114°23'3 0.4
2016-Jul-27 13:33N 22°12' E 114°20'9 5.8
2016-Jul-27 12:05N 22°18' E 114°13'0 0.0
2016-Jul-27 11:26N 22°18' E 114°13'0 0.0
2016-Jul-27 10:32N 22°18' E 114°13'0 0.1
2016-Jul-27 09:23N 22°18' E 114°13'0 0.0
2016-Jul-27 08:32N 22°18' E 114°13'0 0.0
2016-Jul-27 07:26N 22°18' E 114°13'0 0.0
2016-Jul-27 06:26N 22°18' E 114°13'0 0.1
2016-Jul-27 05:32N 22°18' E 114°13'0 0.0
2016-Jul-27 04:32N 22°18' E 114°13'0 0.0
2016-Jul-27 03:32N 22°18' E 114°13'0 0.0
2016-Jul-27 02:29N 22°18' E 114°13'0 0.1
2016-Jul-27 01:32N 22°18' E 114°13'0 0.0
2016-Jul-27 00:32N 22°18' E 114°13'4 3.4
2016-Jul-26 23:31N 22°15' E 114°16'6 0.6
2016-Jul-26 13:20N 22°10' E 114°19'810.0
2016-Jul-26 12:32N 22°17' E 114°15'2 1.6
2016-Jul-26 11:29N 22°18' E 114°13'0 0.0
2016-Jul-26 10:26N 22°18' E 114°13'0 0.0
2016-Jul-26 09:32N 22°18' E 114°13'0 0.0
2016-Jul-26 08:29N 22°18' E 114°13'0 0.0
2016-Jul-26 07:32N 22°18' E 114°13'0 0.1
2016-Jul-26 06:29N 22°18' E 114°13'0 0.0
2016-Jul-26 04:26N 22°18' E 114°13'0 0.0
2016-Jul-26 03:32N 22°18' E 114°13'0 0.0
2016-Jul-26 02:26N 22°18' E 114°13'0 0.0
2016-Jul-26 01:32N 22°18' E 114°13'0 0.1
2016-Jul-26 00:26N 22°18' E 114°13'3 2.7
2016-Jul-25 23:29N 22°16' E 114°16'8 9.0
2016-Jul-25 22:33N 22°10' E 114°22'2 0.2
2016-Jul-25 13:29N 22°12' E 114°20'9 9.2
2016-Jul-25 12:30N 22°18' E 114°13'0 0.1
2016-Jul-25 11:08N 22°18' E 114°13'0 0.0
2016-Jul-25 10:23N 22°18' E 114°13'0 0.0
2016-Jul-25 09:19N 22°18' E 114°13'0 0.0
2016-Jul-25 08:31N 22°18' E 114°13'0 0.0
2016-Jul-25 07:31N 22°18' E 114°13'0 0.0
2016-Jul-25 06:13N 22°18' E 114°13'0 0.1
2016-Jul-25 05:28N 22°18' E 114°13'0 0.0
2016-Jul-25 03:25N 22°18' E 114°13'0 0.0
2016-Jul-25 02:31N 22°18' E 114°13'0 0.0
2016-Jul-25 01:28N 22°18' E 114°13'0 0.0
2016-Jul-25 00:04N 22°18' E 114°13'0 0.0
2016-Jul-24 06:30N 22°18' E 114°13'0 0.0
2016-Jul-23 09:19N 22°18' E 114°13'0 0.0
2016-Jul-23 07:31N 22°18' E 114°13'  
Track history (hours):
 
Tides and Currents Weather Stations Pressure Air Temp Water Temp Dewpoint Dewpoint Depression Visibility Wind Speed Wind Dir Waves Ship Positions

Pongnae

Operator: V Ships Leisure SAM

Last reported at 2016-Jul-29 01:07 UTC. Time now 2016-Jul-29 23:33 UTC.
Position N 22°18' E 114°13'.

Length 171 m; draft 6.6 m.

Type: Passenger vessel. MMSI: 353669000.

Date/timePositionNaut miles runAvg speedWind from/ knotsBaromVisibWave heightAir tempDewpointWater temp
2016-Jul-29 01:07N 22°18' E 114°13'5 2.6
2016-Jul-28 23:19N 22°14' E 114°17'7 8.4
2016-Jul-28 22:30N 22°09' E 114°22'3 0.3
2016-Jul-28 13:32N 22°12' E 114°20'9 7.9
2016-Jul-28 12:24N 22°18' E 114°13'0 0.1
2016-Jul-28 11:30N 22°18' E 114°13'0 0.0
2016-Jul-28 10:30N 22°18' E 114°13'0 0.0
2016-Jul-28 09:33N 22°18' E 114°13'0 0.0
2016-Jul-28 08:15N 22°18' E 114°13'0 0.1
2016-Jul-28 07:24N 22°18' E 114°13'0 0.0
2016-Jul-28 06:33N 22°18' E 114°13'0 0.1
2016-Jul-28 05:30N 22°18' E 114°13'0 0.0
2016-Jul-28 04:27N 22°18' E 114°13'0 0.0
2016-Jul-28 03:30N 22°18' E 114°13'0 0.1
2016-Jul-28 02:33N 22°18' E 114°13'0 0.0
2016-Jul-28 01:30N 22°18' E 114°13'0 0.0
2016-Jul-28 00:33N 22°18' E 114°13'2 2.3
2016-Jul-27 23:32N 22°16' E 114°15'10 9.4
2016-Jul-27 22:31N 22°10' E 114°23'3 0.4
2016-Jul-27 13:33N 22°12' E 114°20'9 5.8
2016-Jul-27 12:05N 22°18' E 114°13'0 0.0
2016-Jul-27 11:26N 22°18' E 114°13'0 0.0
2016-Jul-27 10:32N 22°18' E 114°13'0 0.1
2016-Jul-27 09:23N 22°18' E 114°13'0 0.0
2016-Jul-27 08:32N 22°18' E 114°13'0 0.0
2016-Jul-27 07:26N 22°18' E 114°13'0 0.0
2016-Jul-27 06:26N 22°18' E 114°13'0 0.1
2016-Jul-27 05:32N 22°18' E 114°13'0 0.0
2016-Jul-27 04:32N 22°18' E 114°13'0 0.0
2016-Jul-27 03:32N 22°18' E 114°13'0 0.0
2016-Jul-27 02:29N 22°18' E 114°13'0 0.1
2016-Jul-27 01:32N 22°18' E 114°13'0 0.0
2016-Jul-27 00:32N 22°18' E 114°13'4 3.4
2016-Jul-26 23:31N 22°15' E 114°16'6 0.6
2016-Jul-26 13:20N 22°10' E 114°19'810.0
2016-Jul-26 12:32N 22°17' E 114°15'2 1.6
2016-Jul-26 11:29N 22°18' E 114°13'0 0.0
2016-Jul-26 10:26N 22°18' E 114°13'0 0.0
2016-Jul-26 09:32N 22°18' E 114°13'0 0.0
2016-Jul-26 08:29N 22°18' E 114°13'0 0.0
2016-Jul-26 07:32N 22°18' E 114°13'0 0.1
2016-Jul-26 06:29N 22°18' E 114°13'0 0.0
2016-Jul-26 04:26N 22°18' E 114°13'0 0.0
2016-Jul-26 03:32N 22°18' E 114°13'0 0.0
2016-Jul-26 02:26N 22°18' E 114°13'0 0.0
2016-Jul-26 01:32N 22°18' E 114°13'0 0.1
2016-Jul-26 00:26N 22°18' E 114°13'3 2.7
2016-Jul-25 23:29N 22°16' E 114°16'8 9.0
2016-Jul-25 22:33N 22°10' E 114°22'2 0.2
2016-Jul-25 13:29N 22°12' E 114°20'9 9.2
2016-Jul-25 12:30N 22°18' E 114°13'0 0.1
2016-Jul-25 11:08N 22°18' E 114°13'0 0.0
2016-Jul-25 10:23N 22°18' E 114°13'0 0.0
2016-Jul-25 09:19N 22°18' E 114°13'0 0.0
2016-Jul-25 08:31N 22°18' E 114°13'0 0.0
2016-Jul-25 07:31N 22°18' E 114°13'0 0.0
2016-Jul-25 06:13N 22°18' E 114°13'0 0.1
2016-Jul-25 05:28N 22°18' E 114°13'0 0.0
2016-Jul-25 03:25N 22°18' E 114°13'0 0.0
2016-Jul-25 02:31N 22°18' E 114°13'0 0.0
2016-Jul-25 01:28N 22°18' E 114°13'0 0.0
2016-Jul-25 00:04N 22°18' E 114°13'0 0.0
2016-Jul-24 06:30N 22°18' E 114°13'0 0.0
2016-Jul-23 09:19N 22°18' E 114°13'0 0.0
2016-Jul-23 07:31N 22°18' E 114°13'  

Dump ship's entire track history